createdAt,value
2022-08-18T00:02:04.582Z,6.75
2022-08-18T00:04:43.406Z,6.95
2022-08-18T00:07:32.254Z,6.82
2022-08-18T00:10:01.932Z,6.28
2022-08-18T00:12:41.185Z,6.65
2022-08-18T00:15:14.273Z,5.95
2022-08-18T00:17:42.225Z,6.22
2022-08-18T00:20:23.999Z,6.30
2022-08-18T00:22:56.564Z,5.72
2022-08-18T00:25:25.022Z,6.25
2022-08-18T00:27:52.386Z,6.10
2022-08-18T00:30:22.000Z,5.95
2022-08-18T00:32:55.865Z,5.47
2022-08-18T00:35:37.836Z,5.82
2022-08-18T00:38:08.862Z,5.97
2022-08-18T00:40:53.685Z,6.25
2022-08-18T00:43:49.052Z,5.93
2022-08-18T00:46:34.053Z,6.05
2022-08-18T00:49:02.773Z,5.95
2022-08-18T00:51:54.090Z,6.10
2022-08-18T00:54:33.201Z,6.07
2022-08-18T00:57:07.802Z,6.20
2022-08-18T01:00:03.486Z,6.53
2022-08-18T01:02:46.627Z,5.80
2022-08-18T01:05:41.160Z,5.90
2022-08-18T01:08:14.468Z,5.78
2022-08-18T01:10:43.137Z,6.38
2022-08-18T01:13:11.444Z,6.25
2022-08-18T01:15:40.388Z,7.25
2022-08-18T01:18:33.213Z,7.80
2022-08-18T01:22:03.057Z,7.72
2022-08-18T01:24:55.843Z,8.80
2022-08-18T01:27:23.468Z,10.07
2022-08-18T01:29:51.385Z,8.68
2022-08-18T01:32:24.097Z,8.70
2022-08-18T01:34:52.817Z,9.68
2022-08-18T01:37:24.377Z,9.48
2022-08-18T01:41:23.718Z,10.02
2022-08-18T01:42:43.407Z,10.35
2022-08-18T01:45:15.125Z,9.30
2022-08-18T01:47:48.057Z,8.60
2022-08-18T01:50:17.739Z,7.85
2022-08-18T01:52:46.260Z,8.45
2022-08-18T01:55:14.594Z,7.35
2022-08-18T01:57:43.194Z,7.40
2022-08-18T02:00:16.901Z,7.28
2022-08-18T02:02:44.930Z,8.05
2022-08-18T02:05:31.577Z,7.82
2022-08-18T02:07:59.314Z,6.95
2022-08-18T02:10:27.592Z,7.40
2022-08-18T02:12:55.866Z,7.82
2022-08-18T02:15:23.199Z,7.22
2022-08-18T02:17:50.780Z,6.90
2022-08-18T02:20:20.141Z,7.47
2022-08-18T02:22:49.430Z,7.70
2022-08-18T02:25:18.413Z,6.90
2022-08-18T02:27:46.575Z,7.00
2022-08-18T02:30:19.057Z,7.25
2022-08-18T02:32:46.424Z,7.32
2022-08-18T02:35:13.848Z,7.00
2022-08-18T02:37:43.383Z,7.82
2022-08-18T02:40:15.313Z,7.27
2022-08-18T02:42:45.487Z,7.63
2022-08-18T02:45:14.584Z,7.03
2022-08-18T02:47:44.309Z,7.85
2022-08-18T02:50:13.897Z,6.95
2022-08-18T02:52:41.459Z,7.30
2022-08-18T02:55:10.489Z,8.15
2022-08-18T02:57:48.186Z,7.65
2022-08-18T03:00:19.181Z,7.63
2022-08-18T03:02:53.471Z,8.80
2022-08-18T03:05:21.023Z,7.90
2022-08-18T03:07:50.360Z,8.50
2022-08-18T03:10:32.483Z,8.13
2022-08-18T03:13:02.329Z,8.07
2022-08-18T03:15:30.623Z,8.25
2022-08-18T03:17:58.252Z,8.05
2022-08-18T03:20:31.044Z,8.18
2022-08-18T03:23:05.630Z,7.00
2022-08-18T03:25:44.710Z,6.97
2022-08-18T03:28:13.175Z,7.93
2022-08-18T03:30:40.713Z,6.72
2022-08-18T03:33:08.116Z,6.90
2022-08-18T03:35:37.569Z,7.18
2022-08-18T03:38:05.810Z,6.43
2022-08-18T03:40:33.448Z,6.82
2022-08-18T03:43:50.358Z,7.13
2022-08-18T03:45:55.856Z,7.00
2022-08-18T03:48:23.318Z,7.70
2022-08-18T03:50:50.617Z,7.93
2022-08-18T03:53:18.625Z,8.15
2022-08-18T03:55:45.990Z,9.65
2022-08-18T03:58:13.709Z,8.73
2022-08-18T04:00:41.792Z,8.98
2022-08-18T04:03:11.387Z,9.07
2022-08-18T04:05:41.725Z,8.68
2022-08-18T04:08:09.072Z,9.68
2022-08-18T04:10:36.624Z,9.23
2022-08-18T04:13:05.540Z,9.20
2022-08-18T04:15:33.722Z,10.15
2022-08-18T04:18:08.430Z,8.82
2022-08-18T04:20:36.396Z,9.48
2022-08-18T04:23:03.730Z,9.05
2022-08-18T04:25:33.184Z,8.73
2022-08-18T04:28:03.576Z,8.48
2022-08-18T04:30:31.188Z,8.82
2022-08-18T04:32:58.576Z,9.07
2022-08-18T04:35:25.996Z,9.40
2022-08-18T04:37:53.568Z,8.77
2022-08-18T04:40:25.220Z,8.23
2022-08-18T04:42:52.743Z,8.90
2022-08-18T04:45:20.054Z,10.18
2022-08-18T04:47:49.019Z,9.18
2022-08-18T04:50:16.455Z,9.18
2022-08-18T04:53:02.887Z,8.88
2022-08-18T04:55:30.308Z,8.82
2022-08-18T04:57:59.419Z,8.55
2022-08-18T05:00:26.771Z,8.88
2022-08-18T05:02:56.203Z,8.98
2022-08-18T05:05:24.514Z,9.43
2022-08-18T05:07:51.986Z,9.68
2022-08-18T05:10:19.428Z,9.15
2022-08-18T05:12:48.821Z,9.55
2022-08-18T05:15:17.809Z,10.75
2022-08-18T05:17:45.204Z,9.77
2022-08-18T05:20:15.434Z,10.07
2022-08-18T05:22:45.506Z,9.45
2022-08-18T05:25:14.421Z,10.93
2022-08-18T05:27:43.868Z,11.02
2022-08-18T05:30:14.998Z,10.50
2022-08-18T05:32:49.639Z,9.82
2022-08-18T05:35:33.304Z,9.00
2022-08-18T05:39:04.082Z,8.95
2022-08-18T05:44:09.462Z,9.30
2022-08-18T05:47:06.601Z,8.50
2022-08-18T05:49:36.222Z,8.23
2022-08-18T05:52:48.825Z,8.40
2022-08-18T05:56:24.272Z,7.70
2022-08-18T05:58:58.120Z,8.70
2022-08-18T06:01:41.456Z,9.93
2022-08-18T06:04:42.650Z,9.95
2022-08-18T06:07:55.658Z,8.40
2022-08-18T06:10:23.717Z,7.95
2022-08-18T06:12:58.548Z,8.88
2022-08-18T06:16:12.374Z,8.63
2022-08-18T06:19:24.986Z,8.30
2022-08-18T06:22:55.265Z,7.82
2022-08-18T06:25:45.973Z,8.90
2022-08-18T06:28:16.813Z,9.27
2022-08-18T06:31:18.017Z,8.80
2022-08-18T06:34:20.361Z,7.95
2022-08-18T06:37:07.219Z,8.88
2022-08-18T06:39:52.804Z,8.07
2022-08-18T06:42:30.975Z,7.35
2022-08-18T06:45:20.099Z,8.00
2022-08-18T06:48:37.578Z,7.75
2022-08-18T06:51:08.020Z,7.68
2022-08-18T06:56:57.987Z,7.82
2022-08-18T06:59:33.864Z,7.75
2022-08-18T07:02:49.041Z,7.28
2022-08-18T07:05:32.207Z,8.65
2022-08-18T07:08:30.885Z,8.35
2022-08-18T07:11:17.651Z,8.52
2022-08-18T07:14:14.945Z,7.70
2022-08-18T07:17:00.080Z,7.82
2022-08-18T07:19:33.494Z,7.63
2022-08-18T07:22:21.125Z,8.30
2022-08-18T07:25:05.605Z,7.65
2022-08-18T07:27:52.830Z,7.47
2022-08-18T07:30:20.192Z,8.60
2022-08-18T07:33:21.915Z,7.47
2022-08-18T07:36:05.793Z,7.50
2022-08-18T07:39:10.713Z,7.50
2022-08-18T07:41:52.529Z,7.00
2022-08-18T07:45:04.746Z,7.15
2022-08-18T07:48:40.452Z,7.03
2022-08-18T07:51:43.428Z,7.35
2022-08-18T07:55:00.201Z,7.70
2022-08-18T07:57:54.554Z,7.63
2022-08-18T08:00:58.678Z,7.65
2022-08-18T08:03:58.337Z,7.70
2022-08-18T08:07:12.991Z,7.53
2022-08-18T08:10:30.388Z,7.05
2022-08-18T08:14:26.120Z,7.32
2022-08-18T08:17:49.621Z,7.57
2022-08-18T08:21:06.229Z,8.23
2022-08-18T08:24:09.861Z,6.25
2022-08-18T08:27:26.538Z,7.18
2022-08-18T08:30:16.670Z,6.90
2022-08-18T08:33:36.070Z,7.53
2022-08-18T08:36:27.640Z,6.97
2022-08-18T08:39:26.874Z,6.47
2022-08-18T08:42:30.264Z,6.45
2022-08-18T08:45:04.163Z,6.90
2022-08-18T08:48:17.742Z,6.30
2022-08-18T08:51:30.194Z,6.32
2022-08-18T08:54:37.161Z,6.38
2022-08-18T08:57:05.756Z,6.18
2022-08-18T08:59:39.528Z,6.47
2022-08-18T09:02:08.687Z,6.43
2022-08-18T09:05:08.249Z,6.55
2022-08-18T09:08:11.195Z,7.15
2022-08-18T09:11:26.703Z,6.20
2022-08-18T09:14:33.337Z,6.68
2022-08-18T09:17:54.925Z,6.60
2022-08-18T09:21:31.137Z,6.93
2022-08-18T09:24:53.065Z,6.45
2022-08-18T09:28:10.430Z,5.90
2022-08-18T09:31:07.267Z,6.30
2022-08-18T09:33:48.397Z,5.95
2022-08-18T09:36:40.993Z,6.32
2022-08-18T09:39:54.806Z,5.90
2022-08-18T09:42:50.635Z,5.80
2022-08-18T09:46:00.226Z,5.72
2022-08-18T09:48:43.303Z,7.13
2022-08-18T09:51:19.257Z,6.78
2022-08-18T09:53:46.421Z,6.05
2022-08-18T09:56:56.631Z,6.07
2022-08-18T09:59:34.582Z,6.22
2022-08-18T10:02:33.960Z,6.40
2022-08-18T10:05:19.729Z,6.30
2022-08-18T10:08:07.969Z,5.93
2022-08-18T10:11:08.728Z,4.82
2022-08-18T10:14:37.921Z,4.90
2022-08-18T10:17:50.426Z,5.15
2022-08-18T10:20:33.903Z,5.85
2022-08-18T10:23:01.836Z,4.70
2022-08-18T10:25:46.409Z,4.78
2022-08-18T10:28:57.298Z,5.65
2022-08-18T10:31:27.576Z,5.13
2022-08-18T10:37:02.688Z,4.65
2022-08-18T10:39:41.784Z,5.40
2022-08-18T10:43:46.152Z,5.40
2022-08-18T10:46:33.128Z,5.20
2022-08-18T10:49:12.936Z,4.55
2022-08-18T10:52:29.461Z,5.30
2022-08-18T10:55:48.227Z,5.72
2022-08-18T11:03:42.706Z,4.05
2022-08-18T11:06:14.673Z,4.38
2022-08-18T11:08:58.936Z,4.05
2022-08-18T11:11:52.624Z,4.45
2022-08-18T11:14:52.060Z,4.78
2022-08-18T11:18:14.238Z,4.50
2022-08-18T11:20:44.080Z,4.03
2022-08-18T11:23:18.212Z,5.60
2022-08-18T11:25:46.060Z,5.40
2022-08-18T11:28:30.429Z,4.50
2022-08-18T11:31:00.191Z,4.80
2022-08-18T11:33:27.752Z,5.13
2022-08-18T11:36:01.212Z,4.45
2022-08-18T11:38:31.740Z,4.70
2022-08-18T11:41:24.035Z,4.70
2022-08-18T11:44:02.578Z,4.18
2022-08-18T11:49:36.197Z,5.20
2022-08-18T11:52:29.709Z,5.32
2022-08-18T11:55:23.982Z,6.07
2022-08-18T11:57:59.234Z,6.65
2022-08-18T12:00:44.114Z,6.65
2022-08-18T12:03:44.620Z,7.00
2022-08-18T12:06:30.721Z,6.75
2022-08-18T12:12:30.500Z,6.63
2022-08-18T12:15:43.992Z,7.10
2022-08-18T12:18:26.149Z,7.65
2022-08-18T12:20:58.944Z,6.60
2022-08-18T12:23:28.014Z,7.35
2022-08-18T12:26:06.294Z,6.93
2022-08-18T12:28:53.600Z,7.22
2022-08-18T12:31:42.767Z,5.68
2022-08-18T12:34:24.942Z,5.40
2022-08-18T12:37:01.834Z,5.45
2022-08-18T12:39:31.234Z,4.68
2022-08-18T12:41:59.612Z,4.18
2022-08-18T12:44:30.386Z,4.82
2022-08-18T12:46:59.831Z,5.72
2022-08-18T12:49:27.224Z,5.30
2022-08-18T12:51:55.826Z,5.13
2022-08-18T12:54:23.355Z,5.22
2022-08-18T12:56:57.638Z,4.60
2022-08-18T12:59:26.372Z,4.38
2022-08-18T13:02:00.268Z,4.70
2022-08-18T13:04:28.507Z,4.72
2022-08-18T13:07:02.152Z,4.07
2022-08-18T13:09:53.080Z,4.18
2022-08-18T13:12:24.069Z,4.35
2022-08-18T13:14:54.866Z,4.95
2022-08-18T13:17:32.210Z,3.83
2022-08-18T13:20:16.944Z,3.20
2022-08-18T13:22:44.598Z,3.25
2022-08-18T13:25:32.808Z,3.38
2022-08-18T13:28:06.495Z,3.42
2022-08-18T13:30:35.508Z,3.85
2022-08-18T13:33:05.781Z,3.92
2022-08-18T13:35:54.819Z,3.88
2022-08-18T13:38:27.195Z,3.60
2022-08-18T13:41:00.711Z,3.60
2022-08-18T13:43:39.194Z,4.38
2022-08-18T13:46:10.473Z,3.25
2022-08-18T13:48:41.747Z,3.53
2022-08-18T13:51:22.481Z,3.50
2022-08-18T13:53:59.343Z,3.92
2022-08-18T13:56:39.807Z,3.83
2022-08-18T13:59:07.334Z,3.60
2022-08-18T14:01:44.175Z,3.78
2022-08-18T14:04:22.249Z,3.40
2022-08-18T14:06:57.479Z,3.78
2022-08-18T14:09:35.978Z,3.60
2022-08-18T14:12:28.270Z,3.60
2022-08-18T14:14:58.882Z,3.30
2022-08-18T14:17:27.462Z,3.78
2022-08-18T14:20:21.105Z,3.70
2022-08-18T14:23:22.057Z,3.40
2022-08-18T14:26:11.067Z,3.75
2022-08-18T14:28:41.147Z,4.18
2022-08-18T14:31:11.782Z,3.58
2022-08-18T14:39:02.229Z,4.22
2022-08-18T14:41:31.387Z,3.78
2022-08-18T14:44:11.973Z,3.35
2022-08-18T14:46:52.485Z,3.97
2022-08-18T14:52:00.361Z,3.50
2022-08-18T14:54:30.637Z,3.58
2022-08-18T14:59:34.650Z,4.45
2022-08-18T15:02:13.284Z,3.90
2022-08-18T15:04:53.290Z,3.88
2022-08-18T15:07:25.847Z,3.53
2022-08-18T15:10:15.172Z,3.90
2022-08-18T15:12:40.807Z,3.70
2022-08-18T15:15:17.920Z,3.97
2022-08-18T15:17:50.136Z,4.03
2022-08-18T15:20:29.456Z,3.63
2022-08-18T15:23:28.156Z,4.28
2022-08-18T15:25:59.070Z,3.13
2022-08-18T15:28:27.497Z,3.60
2022-08-18T15:33:42.441Z,3.97
2022-08-18T15:36:16.107Z,4.00
2022-08-18T15:38:43.680Z,3.90
2022-08-18T15:41:26.543Z,3.55
2022-08-18T15:43:56.235Z,3.67
2022-08-18T15:46:24.691Z,3.55
2022-08-18T15:48:54.820Z,3.80
2022-08-18T15:51:22.612Z,3.30
2022-08-18T15:53:50.909Z,3.83
2022-08-18T15:56:26.219Z,4.18
2022-08-18T15:58:54.301Z,3.58
2022-08-18T16:01:32.153Z,4.00
2022-08-18T16:04:04.206Z,4.13
2022-08-18T16:06:32.675Z,3.72
2022-08-18T16:09:01.827Z,3.72
2022-08-18T16:11:30.104Z,4.07
2022-08-18T16:13:59.136Z,4.15
2022-08-18T16:16:33.280Z,3.70
2022-08-18T16:19:08.121Z,4.05
2022-08-18T16:21:39.785Z,3.55
2022-08-18T16:24:09.429Z,4.40
2022-08-18T16:26:36.846Z,4.25
2022-08-18T16:29:04.716Z,3.72
2022-08-18T16:31:32.880Z,4.00
2022-08-18T16:34:00.192Z,3.80
2022-08-18T16:36:27.580Z,4.03
2022-08-18T16:38:56.145Z,3.65
2022-08-18T16:41:26.747Z,4.40
2022-08-18T16:43:54.453Z,3.75
2022-08-18T16:46:27.419Z,3.80
2022-08-18T16:48:58.478Z,4.10
2022-08-18T16:51:28.875Z,4.32
2022-08-18T16:56:30.227Z,4.45
2022-08-18T16:59:16.815Z,4.28
2022-08-18T17:02:03.575Z,4.55
2022-08-18T17:04:35.790Z,4.15
2022-08-18T17:07:06.155Z,4.20
2022-08-18T17:12:02.793Z,4.55
2022-08-18T17:14:32.464Z,4.75
2022-08-18T17:17:01.675Z,3.80
2022-08-18T17:19:36.897Z,3.90
2022-08-18T17:22:06.429Z,4.43
2022-08-18T17:24:33.743Z,4.47
2022-08-18T17:27:11.940Z,4.18
2022-08-18T17:30:21.736Z,4.50
2022-08-18T17:33:01.209Z,5.00
2022-08-18T17:35:40.004Z,4.57
2022-08-18T17:38:34.222Z,4.32
2022-08-18T17:41:04.366Z,4.63
2022-08-18T17:46:38.936Z,4.55
2022-08-18T17:50:27.308Z,4.55
2022-08-18T17:53:06.333Z,4.28
2022-08-18T17:56:12.423Z,4.88
2022-08-18T17:59:04.288Z,4.50
2022-08-18T18:01:34.421Z,5.35
2022-08-18T18:04:04.079Z,5.10
2022-08-18T18:06:43.482Z,5.00
2022-08-18T18:09:20.768Z,5.00
2022-08-18T18:11:48.111Z,4.68
2022-08-18T18:14:39.546Z,5.25
2022-08-18T18:17:18.431Z,5.03
2022-08-18T18:19:50.699Z,5.20
2022-08-18T18:22:30.547Z,5.18
2022-08-18T18:25:04.665Z,4.93
2022-08-18T18:27:36.860Z,5.00
2022-08-18T18:30:27.965Z,4.75
2022-08-18T18:33:16.813Z,5.25
2022-08-18T18:35:53.453Z,4.70
2022-08-18T18:38:41.436Z,4.60
2022-08-18T18:41:14.713Z,5.03
2022-08-18T18:43:49.076Z,4.68
2022-08-18T18:46:23.086Z,4.40
2022-08-18T18:49:19.099Z,4.35
2022-08-18T18:52:22.807Z,3.83
2022-08-18T18:55:31.261Z,4.57
2022-08-18T18:59:14.127Z,4.95
2022-08-18T19:02:34.481Z,4.65
2022-08-18T19:05:17.589Z,4.88
2022-08-18T19:08:42.412Z,4.22
2022-08-18T19:11:45.508Z,4.40
2022-08-18T19:14:30.009Z,4.75
2022-08-18T19:17:38.889Z,4.55
2022-08-18T19:20:28.505Z,4.53
2022-08-18T19:23:37.490Z,4.47
2022-08-18T19:26:14.329Z,4.90
2022-08-18T19:29:12.088Z,4.80
2022-08-18T19:32:16.516Z,5.00
2022-08-18T19:34:51.380Z,4.55
2022-08-18T19:37:36.272Z,4.95
2022-08-18T19:41:10.966Z,5.25
2022-08-18T19:44:34.881Z,5.00
2022-08-18T19:47:28.881Z,5.57
2022-08-18T19:50:21.696Z,5.47
2022-08-18T19:53:35.727Z,5.78
2022-08-18T19:57:16.197Z,5.38
2022-08-18T20:00:25.349Z,5.78
2022-08-18T20:04:03.391Z,5.20
2022-08-18T20:06:58.944Z,5.63
2022-08-18T20:10:06.121Z,5.57
2022-08-18T20:12:55.776Z,6.43
2022-08-18T20:15:29.183Z,6.68
2022-08-18T20:18:19.552Z,6.68
2022-08-18T20:21:15.743Z,5.88
2022-08-18T20:24:34.509Z,6.68
2022-08-18T20:27:49.415Z,6.55
2022-08-18T20:31:07.248Z,5.78
2022-08-18T20:33:46.834Z,6.72
2022-08-18T20:36:36.626Z,6.43
2022-08-18T20:39:44.356Z,6.68
2022-08-18T20:42:24.509Z,6.13
2022-08-18T20:45:09.255Z,6.38
2022-08-18T20:48:30.481Z,6.22
2022-08-18T20:51:20.228Z,6.22
2022-08-18T20:54:33.240Z,6.78
2022-08-18T20:57:04.156Z,6.00
2022-08-18T21:00:02.141Z,6.07
2022-08-18T21:02:41.039Z,6.18
2022-08-18T21:05:10.584Z,6.72
2022-08-18T21:08:19.776Z,5.93
2022-08-18T21:11:08.347Z,6.65
2022-08-18T21:13:41.488Z,6.30
2022-08-18T21:16:37.995Z,6.65
2022-08-18T21:19:24.772Z,6.57
2022-08-18T21:22:04.467Z,6.40
2022-08-18T21:24:43.595Z,6.85
2022-08-18T21:27:36.003Z,6.43
2022-08-18T21:30:32.404Z,5.68
2022-08-18T21:32:59.763Z,5.13
2022-08-18T21:35:39.431Z,5.57
2022-08-18T21:38:12.913Z,5.65
2022-08-18T21:40:49.716Z,5.78
2022-08-18T21:43:49.143Z,6.32
2022-08-18T21:46:31.073Z,6.25
2022-08-18T21:49:03.947Z,6.25
2022-08-18T21:51:50.072Z,6.70
2022-08-18T21:54:25.159Z,7.32
2022-08-18T21:57:21.948Z,7.10
2022-08-18T22:00:25.353Z,7.32
2022-08-18T22:03:28.218Z,6.68
2022-08-18T22:06:34.773Z,5.93
2022-08-18T22:09:29.649Z,4.60
2022-08-18T22:12:46.797Z,4.43
2022-08-18T22:15:26.224Z,4.22
2022-08-18T22:18:35.180Z,4.25
2022-08-18T22:21:09.266Z,3.80
2022-08-18T22:24:05.771Z,2.08
2022-08-18T22:26:37.945Z,2.40
2022-08-18T22:29:46.376Z,2.45
2022-08-18T22:32:14.272Z,2.78
2022-08-18T22:34:42.229Z,2.50
2022-08-18T22:37:25.837Z,2.38
2022-08-18T22:40:13.392Z,2.72
2022-08-18T22:42:41.798Z,2.38
2022-08-18T22:45:13.939Z,2.58
2022-08-18T22:47:45.246Z,2.78
2022-08-18T22:50:14.291Z,2.40
2022-08-18T22:52:48.971Z,2.60
2022-08-18T22:55:21.979Z,2.53
2022-08-18T22:57:56.060Z,2.80
2022-08-18T23:00:25.543Z,3.10
2022-08-18T23:02:55.019Z,3.30
2022-08-18T23:05:23.485Z,3.00
2022-08-18T23:07:50.985Z,3.20
2022-08-18T23:10:18.992Z,3.55
2022-08-18T23:12:48.616Z,2.80
2022-08-18T23:15:19.488Z,3.05
2022-08-18T23:17:46.808Z,3.05
2022-08-18T23:20:18.333Z,2.60
2022-08-18T23:22:48.217Z,2.90
2022-08-18T23:25:17.642Z,2.90
2022-08-18T23:27:44.980Z,2.58
2022-08-18T23:30:13.790Z,2.47
2022-08-18T23:32:41.261Z,2.80
2022-08-18T23:35:08.756Z,2.42
2022-08-18T23:37:38.488Z,2.50
2022-08-18T23:40:07.870Z,2.85
2022-08-18T23:42:35.257Z,3.17
2022-08-18T23:45:04.608Z,2.88
2022-08-18T23:47:32.099Z,2.90
2022-08-18T23:49:59.439Z,2.88
2022-08-18T23:52:26.805Z,3.53
2022-08-18T23:54:54.225Z,3.30
2022-08-18T23:57:21.539Z,3.92
2022-08-18T23:59:48.855Z,3.00
